sensor_id;sensor_type;location;lat;lon;timestamp;P1;durP1;ratioP1;P2;durP2;ratioP2
4053;SDS011;2042;47.956;9.222;2024-01-30T00:01:49;12.33;;;8.27;;
4053;SDS011;2042;47.956;9.222;2024-01-30T00:04:15;16.10;;;9.47;;
4053;SDS011;2042;47.956;9.222;2024-01-30T00:06:42;17.07;;;9.80;;
4053;SDS011;2042;47.956;9.222;2024-01-30T00:09:08;14.37;;;10.00;;
4053;SDS011;2042;47.956;9.222;2024-01-30T00:11:35;10.90;;;9.17;;
4053;SDS011;2042;47.956;9.222;2024-01-30T00:14:01;13.50;;;8.60;;
4053;SDS011;2042;47.956;9.222;2024-01-30T00:16:26;11.27;;;8.57;;
4053;SDS011;2042;47.956;9.222;2024-01-30T00:18:53;14.17;;;8.10;;
4053;SDS011;2042;47.956;9.222;2024-01-30T00:21:19;18.53;;;10.37;;
4053;SDS011;2042;47.956;9.222;2024-01-30T00:23:46;14.87;;;8.83;;
4053;SDS011;2042;47.956;9.222;2024-01-30T00:26:12;15.50;;;10.47;;
4053;SDS011;2042;47.956;9.222;2024-01-30T00:28:39;18.17;;;10.73;;
4053;SDS011;2042;47.956;9.222;2024-01-30T00:31:06;17.57;;;11.50;;
4053;SDS011;2042;47.956;9.222;2024-01-30T00:33:31;16.70;;;10.27;;
4053;SDS011;2042;47.956;9.222;2024-01-30T00:35:57;18.37;;;10.77;;
4053;SDS011;2042;47.956;9.222;2024-01-30T00:38:22;17.27;;;10.17;;
4053;SDS011;2042;47.956;9.222;2024-01-30T00:40:48;18.23;;;10.40;;
4053;SDS011;2042;47.956;9.222;2024-01-30T00:43:14;16.87;;;10.17;;
4053;SDS011;2042;47.956;9.222;2024-01-30T00:45:40;18.33;;;9.90;;
4053;SDS011;2042;47.956;9.222;2024-01-30T00:48:06;17.00;;;10.87;;
4053;SDS011;2042;47.956;9.222;2024-01-30T00:50:32;16.57;;;10.10;;
4053;SDS011;2042;47.956;9.222;2024-01-30T00:52:58;15.73;;;9.93;;
4053;SDS011;2042;47.956;9.222;2024-01-30T00:55:23;19.73;;;10.63;;
4053;SDS011;2042;47.956;9.222;2024-01-30T00:57:49;16.93;;;11.30;;
4053;SDS011;2042;47.956;9.222;2024-01-30T01:00:15;15.77;;;9.60;;
4053;SDS011;2042;47.956;9.222;2024-01-30T01:02:44;14.97;;;9.50;;
4053;SDS011;2042;47.956;9.222;2024-01-30T01:05:09;15.37;;;9.50;;
4053;SDS011;2042;47.956;9.222;2024-01-30T01:07:35;14.30;;;9.50;;
4053;SDS011;2042;47.956;9.222;2024-01-30T01:10:01;16.57;;;10.63;;
4053;SDS011;2042;47.956;9.222;2024-01-30T01:12:27;15.37;;;10.30;;
4053;SDS011;2042;47.956;9.222;2024-01-30T01:14:53;13.50;;;9.30;;
4053;SDS011;2042;47.956;9.222;2024-01-30T01:17:18;15.20;;;9.70;;
4053;SDS011;2042;47.956;9.222;2024-01-30T01:19:45;19.87;;;9.80;;
4053;SDS011;2042;47.956;9.222;2024-01-30T01:22:10;16.60;;;10.50;;
4053;SDS011;2042;47.956;9.222;2024-01-30T01:24:36;14.73;;;9.37;;
4053;SDS011;2042;47.956;9.222;2024-01-30T01:27:02;16.13;;;10.20;;
4053;SDS011;2042;47.956;9.222;2024-01-30T01:29:28;14.43;;;9.47;;
4053;SDS011;2042;47.956;9.222;2024-01-30T01:31:54;15.07;;;9.60;;
4053;SDS011;2042;47.956;9.222;2024-01-30T01:34:21;13.20;;;9.80;;
4053;SDS011;2042;47.956;9.222;2024-01-30T01:36:47;12.40;;;8.10;;
4053;SDS011;2042;47.956;9.222;2024-01-30T01:39:13;13.03;;;9.03;;
4053;SDS011;2042;47.956;9.222;2024-01-30T01:41:38;11.97;;;8.97;;
4053;SDS011;2042;47.956;9.222;2024-01-30T01:44:04;15.73;;;10.43;;
4053;SDS011;2042;47.956;9.222;2024-01-30T01:46:30;16.17;;;11.67;;
4053;SDS011;2042;47.956;9.222;2024-01-30T01:48:58;16.67;;;10.27;;
4053;SDS011;2042;47.956;9.222;2024-01-30T01:51:25;14.33;;;9.03;;
4053;SDS011;2042;47.956;9.222;2024-01-30T01:53:53;19.73;;;11.53;;
4053;SDS011;2042;47.956;9.222;2024-01-30T01:56:21;18.20;;;12.63;;
4053;SDS011;2042;47.956;9.222;2024-01-30T01:58:47;22.00;;;11.20;;
4053;SDS011;2042;47.956;9.222;2024-01-30T02:01:14;19.77;;;11.10;;
4053;SDS011;2042;47.956;9.222;2024-01-30T02:03:44;18.13;;;10.37;;
4053;SDS011;2042;47.956;9.222;2024-01-30T02:06:10;21.53;;;10.50;;
4053;SDS011;2042;47.956;9.222;2024-01-30T02:08:37;20.80;;;11.57;;
4053;SDS011;2042;47.956;9.222;2024-01-30T02:11:03;17.23;;;10.80;;
4053;SDS011;2042;47.956;9.222;2024-01-30T02:13:30;22.83;;;13.10;;
4053;SDS011;2042;47.956;9.222;2024-01-30T02:15:55;26.83;;;13.27;;
4053;SDS011;2042;47.956;9.222;2024-01-30T02:18:21;24.10;;;13.20;;
4053;SDS011;2042;47.956;9.222;2024-01-30T02:20:47;23.27;;;12.20;;
4053;SDS011;2042;47.956;9.222;2024-01-30T02:23:15;19.17;;;10.97;;
4053;SDS011;2042;47.956;9.222;2024-01-30T02:25:41;16.73;;;10.40;;
4053;SDS011;2042;47.956;9.222;2024-01-30T02:28:12;22.37;;;11.10;;
4053;SDS011;2042;47.956;9.222;2024-01-30T02:30:47;21.03;;;13.50;;
4053;SDS011;2042;47.956;9.222;2024-01-30T02:33:13;19.60;;;12.03;;
4053;SDS011;2042;47.956;9.222;2024-01-30T02:35:38;20.83;;;12.40;;
4053;SDS011;2042;47.956;9.222;2024-01-30T02:38:04;17.93;;;10.00;;
4053;SDS011;2042;47.956;9.222;2024-01-30T02:40:30;18.43;;;11.10;;
4053;SDS011;2042;47.956;9.222;2024-01-30T02:42:57;14.30;;;9.73;;
4053;SDS011;2042;47.956;9.222;2024-01-30T02:45:24;18.53;;;11.70;;
4053;SDS011;2042;47.956;9.222;2024-01-30T02:47:49;22.47;;;12.40;;
4053;SDS011;2042;47.956;9.222;2024-01-30T02:50:15;23.57;;;11.67;;
4053;SDS011;2042;47.956;9.222;2024-01-30T02:52:41;16.83;;;11.47;;
4053;SDS011;2042;47.956;9.222;2024-01-30T02:55:11;19.63;;;11.80;;
4053;SDS011;2042;47.956;9.222;2024-01-30T02:57:37;19.30;;;11.10;;
4053;SDS011;2042;47.956;9.222;2024-01-30T03:00:05;21.60;;;12.40;;
4053;SDS011;2042;47.956;9.222;2024-01-30T03:02:34;21.03;;;12.23;;
4053;SDS011;2042;47.956;9.222;2024-01-30T03:05:00;21.90;;;12.50;;
4053;SDS011;2042;47.956;9.222;2024-01-30T03:07:26;21.00;;;11.67;;
4053;SDS011;2042;47.956;9.222;2024-01-30T03:09:51;19.07;;;10.53;;
4053;SDS011;2042;47.956;9.222;2024-01-30T03:12:17;18.83;;;11.77;;
4053;SDS011;2042;47.956;9.222;2024-01-30T03:14:43;22.75;;;14.88;;
4053;SDS011;2042;47.956;9.222;2024-01-30T03:17:08;21.73;;;12.73;;
4053;SDS011;2042;47.956;9.222;2024-01-30T03:19:34;17.27;;;9.90;;
4053;SDS011;2042;47.956;9.222;2024-01-30T03:22:00;21.17;;;12.10;;
4053;SDS011;2042;47.956;9.222;2024-01-30T03:24:26;17.10;;;9.83;;
4053;SDS011;2042;47.956;9.222;2024-01-30T03:26:51;19.07;;;11.87;;
4053;SDS011;2042;47.956;9.222;2024-01-30T03:29:18;22.00;;;13.60;;
4053;SDS011;2042;47.956;9.222;2024-01-30T03:31:43;23.23;;;12.57;;
4053;SDS011;2042;47.956;9.222;2024-01-30T03:34:09;22.90;;;11.93;;
4053;SDS011;2042;47.956;9.222;2024-01-30T03:36:35;17.17;;;10.80;;
4053;SDS011;2042;47.956;9.222;2024-01-30T03:39:01;22.33;;;11.30;;
4053;SDS011;2042;47.956;9.222;2024-01-30T03:41:27;13.83;;;9.73;;
4053;SDS011;2042;47.956;9.222;2024-01-30T03:43:52;14.07;;;9.80;;
4053;SDS011;2042;47.956;9.222;2024-01-30T03:46:18;19.83;;;10.87;;
4053;SDS011;2042;47.956;9.222;2024-01-30T03:48:44;16.37;;;8.57;;
4053;SDS011;2042;47.956;9.222;2024-01-30T03:51:11;18.80;;;10.40;;
4053;SDS011;2042;47.956;9.222;2024-01-30T03:53:41;19.83;;;10.80;;
4053;SDS011;2042;47.956;9.222;2024-01-30T03:56:07;17.77;;;12.00;;
4053;SDS011;2042;47.956;9.222;2024-01-30T03:58:34;18.53;;;11.50;;
4053;SDS011;2042;47.956;9.222;2024-01-30T04:00:59;23.87;;;12.20;;
4053;SDS011;2042;47.956;9.222;2024-01-30T04:03:25;20.03;;;11.53;;
4053;SDS011;2042;47.956;9.222;2024-01-30T04:05:51;21.80;;;10.40;;
4053;SDS011;2042;47.956;9.222;2024-01-30T04:08:17;15.10;;;9.17;;
4053;SDS011;2042;47.956;9.222;2024-01-30T04:10:43;12.83;;;9.80;;
4053;SDS011;2042;47.956;9.222;2024-01-30T04:13:08;13.57;;;9.57;;
4053;SDS011;2042;47.956;9.222;2024-01-30T04:15:34;18.77;;;10.97;;
4053;SDS011;2042;47.956;9.222;2024-01-30T04:18:00;18.37;;;10.83;;
4053;SDS011;2042;47.956;9.222;2024-01-30T04:20:25;15.97;;;9.50;;
4053;SDS011;2042;47.956;9.222;2024-01-30T04:22:52;16.47;;;9.50;;
4053;SDS011;2042;47.956;9.222;2024-01-30T04:25:17;15.50;;;8.93;;
4053;SDS011;2042;47.956;9.222;2024-01-30T04:27:43;16.87;;;10.80;;
4053;SDS011;2042;47.956;9.222;2024-01-30T04:30:09;13.30;;;9.27;;
4053;SDS011;2042;47.956;9.222;2024-01-30T04:32:35;16.10;;;10.10;;
4053;SDS011;2042;47.956;9.222;2024-01-30T04:35:02;24.10;;;10.90;;
4053;SDS011;2042;47.956;9.222;2024-01-30T04:37:28;20.73;;;10.23;;
4053;SDS011;2042;47.956;9.222;2024-01-30T04:39:54;20.37;;;9.57;;
4053;SDS011;2042;47.956;9.222;2024-01-30T04:42:19;17.47;;;10.13;;
4053;SDS011;2042;47.956;9.222;2024-01-30T04:44:45;18.30;;;11.67;;
4053;SDS011;2042;47.956;9.222;2024-01-30T04:47:11;17.80;;;11.30;;
4053;SDS011;2042;47.956;9.222;2024-01-30T04:49:40;13.70;;;8.57;;
4053;SDS011;2042;47.956;9.222;2024-01-30T04:52:06;17.60;;;10.60;;
4053;SDS011;2042;47.956;9.222;2024-01-30T04:54:32;21.27;;;12.07;;
4053;SDS011;2042;47.956;9.222;2024-01-30T04:56:59;15.50;;;9.47;;
4053;SDS011;2042;47.956;9.222;2024-01-30T04:59:25;19.00;;;10.50;;
4053;SDS011;2042;47.956;9.222;2024-01-30T05:01:51;17.17;;;10.27;;
4053;SDS011;2042;47.956;9.222;2024-01-30T05:04:16;19.67;;;10.67;;
4053;SDS011;2042;47.956;9.222;2024-01-30T05:06:42;22.83;;;11.30;;
4053;SDS011;2042;47.956;9.222;2024-01-30T05:09:08;14.53;;;8.50;;
4053;SDS011;2042;47.956;9.222;2024-01-30T05:11:40;16.53;;;9.80;;
4053;SDS011;2042;47.956;9.222;2024-01-30T05:14:06;18.73;;;10.97;;
4053;SDS011;2042;47.956;9.222;2024-01-30T05:16:32;12.77;;;9.00;;
4053;SDS011;2042;47.956;9.222;2024-01-30T05:18:58;15.87;;;9.30;;
4053;SDS011;2042;47.956;9.222;2024-01-30T05:21:24;14.63;;;9.60;;
4053;SDS011;2042;47.956;9.222;2024-01-30T05:23:50;17.93;;;11.13;;
4053;SDS011;2042;47.956;9.222;2024-01-30T05:26:16;16.70;;;9.20;;
4053;SDS011;2042;47.956;9.222;2024-01-30T05:28:42;19.83;;;8.80;;
4053;SDS011;2042;47.956;9.222;2024-01-30T05:31:09;16.37;;;9.63;;
4053;SDS011;2042;47.956;9.222;2024-01-30T05:33:35;13.80;;;10.00;;
4053;SDS011;2042;47.956;9.222;2024-01-30T05:36:01;15.43;;;10.20;;
4053;SDS011;2042;47.956;9.222;2024-01-30T05:38:27;21.00;;;11.50;;
4053;SDS011;2042;47.956;9.222;2024-01-30T05:40:56;16.13;;;8.60;;
4053;SDS011;2042;47.956;9.222;2024-01-30T05:43:25;15.37;;;10.10;;
4053;SDS011;2042;47.956;9.222;2024-01-30T05:45:51;13.53;;;8.43;;
4053;SDS011;2042;47.956;9.222;2024-01-30T05:48:17;14.20;;;9.20;;
4053;SDS011;2042;47.956;9.222;2024-01-30T05:50:43;13.73;;;8.53;;
4053;SDS011;2042;47.956;9.222;2024-01-30T05:53:10;24.83;;;11.43;;
4053;SDS011;2042;47.956;9.222;2024-01-30T05:55:35;21.00;;;10.47;;
4053;SDS011;2042;47.956;9.222;2024-01-30T05:58:01;14.80;;;9.43;;
4053;SDS011;2042;47.956;9.222;2024-01-30T06:00:27;15.10;;;8.77;;
4053;SDS011;2042;47.956;9.222;2024-01-30T06:02:53;17.03;;;11.13;;
4053;SDS011;2042;47.956;9.222;2024-01-30T06:05:18;21.43;;;9.93;;
4053;SDS011;2042;47.956;9.222;2024-01-30T06:07:44;13.37;;;9.13;;
4053;SDS011;2042;47.956;9.222;2024-01-30T06:10:10;14.03;;;9.30;;
4053;SDS011;2042;47.956;9.222;2024-01-30T06:12:35;18.00;;;10.43;;
4053;SDS011;2042;47.956;9.222;2024-01-30T06:15:01;17.20;;;10.47;;
4053;SDS011;2042;47.956;9.222;2024-01-30T06:17:27;22.07;;;10.70;;
4053;SDS011;2042;47.956;9.222;2024-01-30T06:19:53;14.97;;;10.23;;
4053;SDS011;2042;47.956;9.222;2024-01-30T06:22:19;18.97;;;9.27;;
4053;SDS011;2042;47.956;9.222;2024-01-30T06:24:45;24.70;;;12.70;;
4053;SDS011;2042;47.956;9.222;2024-01-30T06:27:13;17.63;;;10.10;;
4053;SDS011;2042;47.956;9.222;2024-01-30T06:29:40;17.50;;;12.07;;
4053;SDS011;2042;47.956;9.222;2024-01-30T06:32:06;17.80;;;9.57;;
4053;SDS011;2042;47.956;9.222;2024-01-30T06:34:31;20.77;;;12.57;;
4053;SDS011;2042;47.956;9.222;2024-01-30T06:36:57;19.40;;;11.07;;
4053;SDS011;2042;47.956;9.222;2024-01-30T06:39:23;88.87;;;15.63;;
4053;SDS011;2042;47.956;9.222;2024-01-30T06:41:48;28.10;;;11.67;;
4053;SDS011;2042;47.956;9.222;2024-01-30T06:44:14;14.77;;;9.07;;
4053;SDS011;2042;47.956;9.222;2024-01-30T06:46:40;28.30;;;14.90;;
4053;SDS011;2042;47.956;9.222;2024-01-30T06:49:05;18.23;;;10.57;;
4053;SDS011;2042;47.956;9.222;2024-01-30T06:51:31;15.40;;;8.67;;
4053;SDS011;2042;47.956;9.222;2024-01-30T06:53:57;18.00;;;11.20;;
4053;SDS011;2042;47.956;9.222;2024-01-30T06:56:22;18.43;;;11.40;;
4053;SDS011;2042;47.956;9.222;2024-01-30T06:58:49;21.97;;;11.03;;
4053;SDS011;2042;47.956;9.222;2024-01-30T07:01:15;16.30;;;10.37;;
4053;SDS011;2042;47.956;9.222;2024-01-30T07:03:41;12.90;;;9.37;;
4053;SDS011;2042;47.956;9.222;2024-01-30T07:06:07;17.73;;;10.67;;
4053;SDS011;2042;47.956;9.222;2024-01-30T07:08:33;23.07;;;13.40;;
4053;SDS011;2042;47.956;9.222;2024-01-30T07:10:58;16.83;;;11.93;;
4053;SDS011;2042;47.956;9.222;2024-01-30T07:13:24;18.43;;;10.50;;
4053;SDS011;2042;47.956;9.222;2024-01-30T07:15:50;19.80;;;10.73;;
4053;SDS011;2042;47.956;9.222;2024-01-30T07:18:15;16.23;;;9.07;;
4053;SDS011;2042;47.956;9.222;2024-01-30T07:20:41;17.17;;;10.30;;
4053;SDS011;2042;47.956;9.222;2024-01-30T07:23:11;21.70;;;10.97;;
4053;SDS011;2042;47.956;9.222;2024-01-30T07:25:42;17.70;;;9.97;;
4053;SDS011;2042;47.956;9.222;2024-01-30T07:28:09;22.97;;;10.50;;
4053;SDS011;2042;47.956;9.222;2024-01-30T07:30:35;19.30;;;11.33;;
4053;SDS011;2042;47.956;9.222;2024-01-30T07:33:01;26.07;;;12.13;;
4053;SDS011;2042;47.956;9.222;2024-01-30T07:35:27;20.83;;;12.17;;
4053;SDS011;2042;47.956;9.222;2024-01-30T07:37:52;20.70;;;12.90;;
4053;SDS011;2042;47.956;9.222;2024-01-30T07:40:18;22.53;;;13.47;;
4053;SDS011;2042;47.956;9.222;2024-01-30T07:42:44;17.53;;;10.90;;
4053;SDS011;2042;47.956;9.222;2024-01-30T07:45:09;25.67;;;13.07;;
4053;SDS011;2042;47.956;9.222;2024-01-30T07:47:35;30.43;;;13.83;;
4053;SDS011;2042;47.956;9.222;2024-01-30T07:50:00;34.10;;;19.67;;
4053;SDS011;2042;47.956;9.222;2024-01-30T07:52:26;25.87;;;13.83;;
4053;SDS011;2042;47.956;9.222;2024-01-30T07:54:52;18.90;;;11.40;;
4053;SDS011;2042;47.956;9.222;2024-01-30T07:57:18;20.83;;;12.30;;
4053;SDS011;2042;47.956;9.222;2024-01-30T07:59:43;20.00;;;12.13;;
4053;SDS011;2042;47.956;9.222;2024-01-30T08:02:10;24.63;;;12.70;;
4053;SDS011;2042;47.956;9.222;2024-01-30T08:04:36;24.00;;;13.53;;
4053;SDS011;2042;47.956;9.222;2024-01-30T08:07:02;39.80;;;20.93;;
4053;SDS011;2042;47.956;9.222;2024-01-30T08:09:28;25.67;;;15.80;;
4053;SDS011;2042;47.956;9.222;2024-01-30T08:11:53;25.73;;;14.73;;
4053;SDS011;2042;47.956;9.222;2024-01-30T08:14:19;25.00;;;16.40;;
4053;SDS011;2042;47.956;9.222;2024-01-30T08:16:44;28.00;;;16.93;;
4053;SDS011;2042;47.956;9.222;2024-01-30T08:19:10;25.70;;;15.87;;
4053;SDS011;2042;47.956;9.222;2024-01-30T08:21:36;25.50;;;14.00;;
4053;SDS011;2042;47.956;9.222;2024-01-30T08:24:05;20.47;;;13.77;;
4053;SDS011;2042;47.956;9.222;2024-01-30T08:26:32;19.87;;;12.30;;
4053;SDS011;2042;47.956;9.222;2024-01-30T08:28:57;21.53;;;12.30;;
4053;SDS011;2042;47.956;9.222;2024-01-30T08:31:23;24.93;;;14.33;;
4053;SDS011;2042;47.956;9.222;2024-01-30T08:33:49;21.53;;;13.97;;
4053;SDS011;2042;47.956;9.222;2024-01-30T08:36:15;22.60;;;13.37;;
4053;SDS011;2042;47.956;9.222;2024-01-30T08:38:41;27.83;;;14.00;;
4053;SDS011;2042;47.956;9.222;2024-01-30T08:41:07;18.80;;;11.90;;
4053;SDS011;2042;47.956;9.222;2024-01-30T08:43:33;26.57;;;15.00;;
4053;SDS011;2042;47.956;9.222;2024-01-30T08:45:59;22.40;;;15.47;;
4053;SDS011;2042;47.956;9.222;2024-01-30T08:48:25;31.17;;;18.13;;
4053;SDS011;2042;47.956;9.222;2024-01-30T08:50:51;26.57;;;15.17;;
4053;SDS011;2042;47.956;9.222;2024-01-30T08:53:16;23.27;;;14.90;;
4053;SDS011;2042;47.956;9.222;2024-01-30T08:55:42;20.07;;;14.43;;
4053;SDS011;2042;47.956;9.222;2024-01-30T08:58:08;23.23;;;14.40;;
4053;SDS011;2042;47.956;9.222;2024-01-30T09:00:34;23.63;;;14.60;;
4053;SDS011;2042;47.956;9.222;2024-01-30T09:02:59;24.40;;;15.27;;
4053;SDS011;2042;47.956;9.222;2024-01-30T09:05:25;25.43;;;15.60;;
4053;SDS011;2042;47.956;9.222;2024-01-30T09:07:51;19.77;;;13.37;;
4053;SDS011;2042;47.956;9.222;2024-01-30T09:10:16;22.90;;;14.53;;
4053;SDS011;2042;47.956;9.222;2024-01-30T09:12:42;19.30;;;14.10;;
4053;SDS011;2042;47.956;9.222;2024-01-30T09:15:08;20.10;;;15.20;;
4053;SDS011;2042;47.956;9.222;2024-01-30T09:17:34;25.47;;;14.97;;
4053;SDS011;2042;47.956;9.222;2024-01-30T09:19:59;25.77;;;16.17;;
4053;SDS011;2042;47.956;9.222;2024-01-30T09:22:25;24.67;;;15.90;;
4053;SDS011;2042;47.956;9.222;2024-01-30T09:24:51;22.77;;;17.00;;
4053;SDS011;2042;47.956;9.222;2024-01-30T09:27:17;27.87;;;18.40;;
4053;SDS011;2042;47.956;9.222;2024-01-30T09:29:42;25.00;;;16.47;;
4053;SDS011;2042;47.956;9.222;2024-01-30T09:32:08;22.80;;;17.13;;
4053;SDS011;2042;47.956;9.222;2024-01-30T09:34:34;23.77;;;16.27;;
4053;SDS011;2042;47.956;9.222;2024-01-30T09:37:00;25.60;;;16.50;;
4053;SDS011;2042;47.956;9.222;2024-01-30T09:39:25;24.33;;;17.50;;
4053;SDS011;2042;47.956;9.222;2024-01-30T09:41:56;22.70;;;16.07;;
4053;SDS011;2042;47.956;9.222;2024-01-30T09:44:30;20.93;;;14.97;;
4053;SDS011;2042;47.956;9.222;2024-01-30T09:46:56;21.30;;;16.50;;
4053;SDS011;2042;47.956;9.222;2024-01-30T09:49:28;23.70;;;15.03;;
4053;SDS011;2042;47.956;9.222;2024-01-30T09:51:56;23.93;;;15.80;;
4053;SDS011;2042;47.956;9.222;2024-01-30T09:54:23;20.20;;;14.07;;
4053;SDS011;2042;47.956;9.222;2024-01-30T09:56:48;18.80;;;15.50;;
4053;SDS011;2042;47.956;9.222;2024-01-30T09:59:14;25.97;;;15.40;;
4053;SDS011;2042;47.956;9.222;2024-01-30T10:01:40;19.83;;;14.30;;
4053;SDS011;2042;47.956;9.222;2024-01-30T10:04:08;17.50;;;12.37;;
4053;SDS011;2042;47.956;9.222;2024-01-30T10:06:33;16.07;;;12.30;;
4053;SDS011;2042;47.956;9.222;2024-01-30T10:08:59;16.33;;;11.63;;
4053;SDS011;2042;47.956;9.222;2024-01-30T10:11:25;17.43;;;12.97;;
4053;SDS011;2042;47.956;9.222;2024-01-30T10:13:50;13.17;;;11.17;;
4053;SDS011;2042;47.956;9.222;2024-01-30T10:16:16;13.40;;;10.20;;
4053;SDS011;2042;47.956;9.222;2024-01-30T10:18:42;16.23;;;12.10;;
4053;SDS011;2042;47.956;9.222;2024-01-30T10:21:08;13.47;;;11.10;;
4053;SDS011;2042;47.956;9.222;2024-01-30T10:23:35;18.70;;;12.03;;
4053;SDS011;2042;47.956;9.222;2024-01-30T10:26:02;19.23;;;13.50;;
4053;SDS011;2042;47.956;9.222;2024-01-30T10:28:29;18.67;;;11.63;;
4053;SDS011;2042;47.956;9.222;2024-01-30T10:30:58;15.33;;;10.57;;
4053;SDS011;2042;47.956;9.222;2024-01-30T10:33:25;15.70;;;10.43;;
4053;SDS011;2042;47.956;9.222;2024-01-30T10:36:03;14.93;;;11.53;;
4053;SDS011;2042;47.956;9.222;2024-01-30T10:38:29;16.37;;;11.40;;
4053;SDS011;2042;47.956;9.222;2024-01-30T10:40:56;14.83;;;11.23;;
4053;SDS011;2042;47.956;9.222;2024-01-30T10:43:23;14.63;;;11.03;;
4053;SDS011;2042;47.956;9.222;2024-01-30T10:45:55;15.07;;;10.40;;
4053;SDS011;2042;47.956;9.222;2024-01-30T10:48:29;13.60;;;11.17;;
4053;SDS011;2042;47.956;9.222;2024-01-30T10:50:56;13.60;;;11.27;;
4053;SDS011;2042;47.956;9.222;2024-01-30T10:53:24;13.70;;;10.93;;
4053;SDS011;2042;47.956;9.222;2024-01-30T10:55:51;19.10;;;11.37;;
4053;SDS011;2042;47.956;9.222;2024-01-30T10:58:17;16.70;;;11.40;;
4053;SDS011;2042;47.956;9.222;2024-01-30T11:00:43;16.20;;;10.93;;
4053;SDS011;2042;47.956;9.222;2024-01-30T11:03:10;14.77;;;10.90;;
4053;SDS011;2042;47.956;9.222;2024-01-30T11:05:40;17.40;;;12.67;;
4053;SDS011;2042;47.956;9.222;2024-01-30T11:08:12;18.60;;;11.80;;
4053;SDS011;2042;47.956;9.222;2024-01-30T11:10:47;18.53;;;11.70;;
4053;SDS011;2042;47.956;9.222;2024-01-30T11:13:13;17.50;;;12.03;;
4053;SDS011;2042;47.956;9.222;2024-01-30T11:15:40;18.77;;;12.80;;
4053;SDS011;2042;47.956;9.222;2024-01-30T11:18:05;12.63;;;11.23;;
4053;SDS011;2042;47.956;9.222;2024-01-30T11:20:31;13.97;;;10.90;;
4053;SDS011;2042;47.956;9.222;2024-01-30T11:22:58;12.37;;;10.57;;
4053;SDS011;2042;47.956;9.222;2024-01-30T11:25:25;14.90;;;11.60;;
4053;SDS011;2042;47.956;9.222;2024-01-30T11:27:51;14.97;;;10.27;;
4053;SDS011;2042;47.956;9.222;2024-01-30T11:35:34;14.63;;;10.07;;
4053;SDS011;2042;47.956;9.222;2024-01-30T11:38:01;11.50;;;9.40;;
4053;SDS011;2042;47.956;9.222;2024-01-30T11:40:28;14.35;;;11.20;;
4053;SDS011;2042;47.956;9.222;2024-01-30T11:42:55;12.50;;;9.83;;
4053;SDS011;2042;47.956;9.222;2024-01-30T11:45:21;13.57;;;10.20;;
4053;SDS011;2042;47.956;9.222;2024-01-30T11:47:47;14.77;;;10.43;;
4053;SDS011;2042;47.956;9.222;2024-01-30T11:50:13;12.97;;;9.63;;
4053;SDS011;2042;47.956;9.222;2024-01-30T11:52:38;17.67;;;11.70;;
4053;SDS011;2042;47.956;9.222;2024-01-30T11:55:05;14.40;;;10.40;;
4053;SDS011;2042;47.956;9.222;2024-01-30T11:57:31;13.23;;;10.00;;
4053;SDS011;2042;47.956;9.222;2024-01-30T11:59:56;13.40;;;10.50;;
4053;SDS011;2042;47.956;9.222;2024-01-30T12:02:22;14.37;;;10.83;;
4053;SDS011;2042;47.956;9.222;2024-01-30T12:04:48;13.60;;;9.97;;
4053;SDS011;2042;47.956;9.222;2024-01-30T12:07:14;15.73;;;11.63;;
4053;SDS011;2042;47.956;9.222;2024-01-30T12:09:41;13.37;;;9.67;;
4053;SDS011;2042;47.956;9.222;2024-01-30T12:12:07;11.13;;;9.43;;
4053;SDS011;2042;47.956;9.222;2024-01-30T12:14:37;14.82;;;12.48;;
4053;SDS011;2042;47.956;9.222;2024-01-30T12:17:04;14.20;;;11.00;;
4053;SDS011;2042;47.956;9.222;2024-01-30T12:19:30;13.80;;;11.43;;
4053;SDS011;2042;47.956;9.222;2024-01-30T12:21:58;14.27;;;11.33;;
4053;SDS011;2042;47.956;9.222;2024-01-30T12:24:25;14.40;;;10.50;;
4053;SDS011;2042;47.956;9.222;2024-01-30T12:26:52;15.23;;;10.80;;
4053;SDS011;2042;47.956;9.222;2024-01-30T12:29:21;15.80;;;11.20;;
4053;SDS011;2042;47.956;9.222;2024-01-30T12:31:47;14.60;;;10.10;;
4053;SDS011;2042;47.956;9.222;2024-01-30T12:34:16;16.63;;;10.63;;
4053;SDS011;2042;47.956;9.222;2024-01-30T12:36:42;14.17;;;10.27;;
4053;SDS011;2042;47.956;9.222;2024-01-30T12:39:10;15.77;;;10.53;;
4053;SDS011;2042;47.956;9.222;2024-01-30T12:41:38;13.83;;;9.90;;
4053;SDS011;2042;47.956;9.222;2024-01-30T12:44:03;17.40;;;10.80;;
4053;SDS011;2042;47.956;9.222;2024-01-30T12:46:29;14.43;;;11.13;;
4053;SDS011;2042;47.956;9.222;2024-01-30T12:48:55;13.60;;;11.17;;
4053;SDS011;2042;47.956;9.222;2024-01-30T12:51:20;13.60;;;10.23;;
4053;SDS011;2042;47.956;9.222;2024-01-30T12:53:46;15.20;;;10.93;;
4053;SDS011;2042;47.956;9.222;2024-01-30T12:56:13;15.73;;;9.87;;
4053;SDS011;2042;47.956;9.222;2024-01-30T12:58:40;12.90;;;9.53;;
4053;SDS011;2042;47.956;9.222;2024-01-30T13:01:07;13.57;;;10.30;;
4053;SDS011;2042;47.956;9.222;2024-01-30T13:03:33;12.87;;;10.20;;
4053;SDS011;2042;47.956;9.222;2024-01-30T13:05:59;14.30;;;10.10;;
4053;SDS011;2042;47.956;9.222;2024-01-30T13:08:25;11.30;;;10.03;;
4053;SDS011;2042;47.956;9.222;2024-01-30T13:10:51;10.80;;;9.40;;
4053;SDS011;2042;47.956;9.222;2024-01-30T13:13:16;14.47;;;10.80;;
4053;SDS011;2042;47.956;9.222;2024-01-30T13:15:42;13.53;;;9.77;;
4053;SDS011;2042;47.956;9.222;2024-01-30T13:18:08;11.50;;;9.47;;
4053;SDS011;2042;47.956;9.222;2024-01-30T13:20:33;13.67;;;10.30;;
4053;SDS011;2042;47.956;9.222;2024-01-30T13:22:59;15.20;;;10.70;;
4053;SDS011;2042;47.956;9.222;2024-01-30T13:25:25;15.70;;;10.73;;
4053;SDS011;2042;47.956;9.222;2024-01-30T13:27:51;14.40;;;10.40;;
4053;SDS011;2042;47.956;9.222;2024-01-30T13:30:16;17.00;;;11.00;;
4053;SDS011;2042;47.956;9.222;2024-01-30T13:32:42;17.63;;;11.00;;
4053;SDS011;2042;47.956;9.222;2024-01-30T13:35:09;12.70;;;9.77;;
4053;SDS011;2042;47.956;9.222;2024-01-30T13:37:35;14.10;;;10.90;;
4053;SDS011;2042;47.956;9.222;2024-01-30T13:40:02;12.87;;;10.00;;
4053;SDS011;2042;47.956;9.222;2024-01-30T13:42:31;14.10;;;10.73;;
4053;SDS011;2042;47.956;9.222;2024-01-30T13:44:57;12.60;;;10.43;;
4053;SDS011;2042;47.956;9.222;2024-01-30T13:47:23;14.70;;;9.37;;
4053;SDS011;2042;47.956;9.222;2024-01-30T13:49:49;13.10;;;10.30;;
4053;SDS011;2042;47.956;9.222;2024-01-30T13:52:14;14.20;;;11.00;;
4053;SDS011;2042;47.956;9.222;2024-01-30T13:54:40;14.40;;;9.47;;
4053;SDS011;2042;47.956;9.222;2024-01-30T13:57:05;15.67;;;10.10;;
4053;SDS011;2042;47.956;9.222;2024-01-30T13:59:33;13.60;;;8.60;;
4053;SDS011;2042;47.956;9.222;2024-01-30T14:01:59;15.00;;;9.47;;
4053;SDS011;2042;47.956;9.222;2024-01-30T14:04:24;12.00;;;9.03;;
4053;SDS011;2042;47.956;9.222;2024-01-30T14:06:50;16.43;;;10.07;;
4053;SDS011;2042;47.956;9.222;2024-01-30T14:09:16;13.37;;;8.93;;
4053;SDS011;2042;47.956;9.222;2024-01-30T14:11:42;11.10;;;9.23;;
4053;SDS011;2042;47.956;9.222;2024-01-30T14:14:08;12.13;;;9.40;;
4053;SDS011;2042;47.956;9.222;2024-01-30T14:16:34;10.27;;;8.70;;
4053;SDS011;2042;47.956;9.222;2024-01-30T14:19:00;9.23;;;8.07;;
4053;SDS011;2042;47.956;9.222;2024-01-30T14:21:25;13.30;;;9.60;;
4053;SDS011;2042;47.956;9.222;2024-01-30T14:23:51;10.50;;;8.90;;
4053;SDS011;2042;47.956;9.222;2024-01-30T14:26:17;12.10;;;8.50;;
4053;SDS011;2042;47.956;9.222;2024-01-30T14:28:43;14.10;;;8.20;;
4053;SDS011;2042;47.956;9.222;2024-01-30T14:31:10;9.60;;;8.20;;
4053;SDS011;2042;47.956;9.222;2024-01-30T14:33:36;10.13;;;6.90;;
4053;SDS011;2042;47.956;9.222;2024-01-30T14:36:02;11.23;;;7.60;;
4053;SDS011;2042;47.956;9.222;2024-01-30T14:38:28;8.53;;;6.93;;
4053;SDS011;2042;47.956;9.222;2024-01-30T14:40:53;10.50;;;8.43;;
4053;SDS011;2042;47.956;9.222;2024-01-30T14:43:19;11.13;;;9.30;;
4053;SDS011;2042;47.956;9.222;2024-01-30T14:45:45;11.60;;;8.13;;
4053;SDS011;2042;47.956;9.222;2024-01-30T14:48:13;12.80;;;7.80;;
4053;SDS011;2042;47.956;9.222;2024-01-30T14:50:39;14.63;;;8.30;;